Terminal Aerodrome Forecast
Issued by NWS Louisville, KY

Home | Current Version | Previous Version | Text Only | Print | Product List | Glossary On
Versions: 1 2 3 4 5 6 7 8 9 10 11 12 13 14 15 16 17 18 19 20 21
000
FTUS43 KLMK 030100 AAA
TAFBWG
TAF AMD
KBWG 030158Z 0302/0324 VRB04KT P6SM VCSH BKN025
     FM030400 20003KT 5SM BR SCT025 BKN250
     FM030800 VRB03KT 3SM BR BKN008
     FM031400 25006KT 6SM HZ BKN015=

USA.gov is the U.S. government's official web portal to all federal, state and local government web resources and services.